createdAt,value
2023-07-03T00:00:22.249Z,1118.00
2023-07-03T00:01:22.293Z,1118.00
2023-07-03T00:02:22.748Z,1112.00
2023-07-03T00:03:22.376Z,1127.00
2023-07-03T00:04:22.468Z,1128.00
2023-07-03T00:05:22.589Z,1126.00
2023-07-03T00:06:22.536Z,1128.00
2023-07-03T00:07:22.539Z,1120.00
2023-07-03T00:08:22.590Z,1130.00
2023-07-03T00:09:22.653Z,1122.00
2023-07-03T00:10:22.693Z,1114.00
2023-07-03T00:11:22.731Z,1122.00
2023-07-03T00:12:22.815Z,1121.00
2023-07-03T00:13:22.890Z,1115.00
2023-07-03T00:14:22.916Z,1113.00
2023-07-03T00:15:22.968Z,1108.00
2023-07-03T00:16:23.067Z,1107.00
2023-07-03T00:17:23.126Z,1100.00
2023-07-03T00:18:23.130Z,1104.00
2023-07-03T00:19:23.164Z,1106.00
2023-07-03T00:20:23.230Z,1113.00
2023-07-03T00:21:23.290Z,1108.00
2023-07-03T00:22:23.337Z,1119.00
2023-07-03T00:23:23.366Z,1136.00
2023-07-03T00:24:23.454Z,1132.00
2023-07-03T00:25:23.533Z,1126.00
2023-07-03T00:26:23.542Z,1129.00
2023-07-03T00:27:23.613Z,1126.00
2023-07-03T00:28:23.673Z,1115.00
2023-07-03T00:29:23.711Z,1115.00
2023-07-03T00:30:23.782Z,1108.00
2023-07-03T00:31:23.930Z,1119.00
2023-07-03T00:32:23.898Z,1102.00
2023-07-03T00:33:23.983Z,1076.00
2023-07-03T00:34:24.019Z,1069.00
2023-07-03T00:35:24.061Z,1079.00
2023-07-03T00:36:24.129Z,1071.00
2023-07-03T00:37:24.178Z,1075.00
2023-07-03T00:38:24.213Z,1066.00
2023-07-03T00:39:24.273Z,1053.00
2023-07-03T00:40:24.330Z,1059.00
2023-07-03T00:41:24.412Z,1050.00
2023-07-03T00:42:24.434Z,1053.00
2023-07-03T00:43:24.522Z,1060.00
2023-07-03T00:44:24.559Z,1058.00
2023-07-03T00:45:24.636Z,1065.00
2023-07-03T00:46:24.687Z,1064.00
2023-07-03T00:47:24.786Z,1055.00
2023-07-03T00:48:24.779Z,1038.00
2023-07-03T00:49:24.843Z,1053.00
2023-07-03T00:50:24.889Z,1059.00
2023-07-03T00:51:24.904Z,1057.00
2023-07-03T00:52:24.977Z,1057.00
2023-07-03T00:53:25.052Z,1053.00
2023-07-03T00:54:25.055Z,1065.00
2023-07-03T00:55:25.152Z,1057.00
2023-07-03T00:56:25.224Z,1056.00
2023-07-03T00:57:25.256Z,1069.00
2023-07-03T00:58:25.311Z,1062.00
2023-07-03T00:59:25.399Z,1058.00
2023-07-03T01:00:25.430Z,1052.00
2023-07-03T01:01:25.531Z,1057.00
2023-07-03T01:02:25.587Z,1059.00
2023-07-03T01:03:25.681Z,1050.00
2023-07-03T01:04:25.806Z,1046.00
2023-07-03T01:05:25.925Z,1053.00
2023-07-03T01:06:25.782Z,1043.00
2023-07-03T01:07:25.846Z,1050.00
2023-07-03T01:08:25.923Z,1066.00
2023-07-03T01:09:25.995Z,1073.00
2023-07-03T01:10:26.054Z,1053.00
2023-07-03T01:11:26.108Z,1061.00
2023-07-03T01:12:26.168Z,1046.00
2023-07-03T01:13:26.238Z,1048.00
2023-07-03T01:14:26.306Z,1051.00
2023-07-03T01:15:26.328Z,1056.00
2023-07-03T01:16:26.451Z,1060.00
2023-07-03T01:17:26.519Z,1062.00
2023-07-03T01:18:26.538Z,1065.00
2023-07-03T01:19:26.578Z,1069.00
2023-07-03T01:20:26.671Z,1057.00
2023-07-03T01:21:26.732Z,1066.00
2023-07-03T01:22:26.737Z,1070.00
2023-07-03T01:23:26.758Z,1068.00
2023-07-03T01:24:26.848Z,1077.00
2023-07-03T01:25:26.829Z,1079.00
2023-07-03T01:26:26.863Z,1082.00
2023-07-03T01:27:26.971Z,1081.00
2023-07-03T01:28:26.892Z,1090.00
2023-07-03T01:29:26.944Z,1087.00
2023-07-03T01:30:26.926Z,1096.00
2023-07-03T01:31:26.958Z,1091.00
2023-07-03T01:32:26.990Z,1094.00
2023-07-03T01:33:27.001Z,1100.00
2023-07-03T01:34:27.028Z,1094.00
2023-07-03T01:35:27.038Z,1083.00
2023-07-03T01:36:27.126Z,1085.00
2023-07-03T01:37:27.113Z,1078.00
2023-07-03T01:38:27.162Z,1076.00
2023-07-03T01:39:27.190Z,1089.00
2023-07-03T01:40:27.212Z,1088.00
2023-07-03T01:41:27.248Z,1091.00
2023-07-03T01:42:27.243Z,1095.00
2023-07-03T01:43:27.309Z,1093.00
2023-07-03T01:44:27.326Z,1097.00
2023-07-03T01:45:27.298Z,1095.00
2023-07-03T01:46:27.382Z,1082.00
2023-07-03T01:47:27.407Z,1085.00
2023-07-03T01:48:27.344Z,1083.00
2023-07-03T01:49:27.364Z,1072.00
2023-07-03T01:50:27.374Z,1068.00
2023-07-03T01:51:27.338Z,1080.00
2023-07-03T01:52:27.319Z,1083.00
2023-07-03T01:53:27.337Z,1076.00
2023-07-03T01:54:27.346Z,1068.00
2023-07-03T01:55:27.325Z,1070.00
2023-07-03T01:56:27.329Z,1053.00
2023-07-03T01:57:27.370Z,1054.00
2023-07-03T01:58:27.439Z,1054.00
2023-07-03T01:59:27.362Z,1069.00
2023-07-03T02:00:27.433Z,1083.00
2023-07-03T02:01:27.454Z,1064.00
2023-07-03T02:02:27.501Z,1060.00
2023-07-03T02:03:27.479Z,1059.00
2023-07-03T02:04:27.431Z,1060.00
2023-07-03T02:05:27.408Z,1057.00
2023-07-03T02:06:27.420Z,1065.00
2023-07-03T02:07:27.405Z,1072.00
2023-07-03T02:08:27.408Z,1075.00
2023-07-03T02:09:27.431Z,1074.00
2023-07-03T02:10:27.407Z,1072.00
2023-07-03T02:11:27.438Z,1074.00
2023-07-03T02:12:27.441Z,1082.00
2023-07-03T02:13:27.488Z,1082.00
2023-07-03T02:14:27.527Z,1090.00
2023-07-03T02:15:27.557Z,1092.00
2023-07-03T02:16:27.618Z,1103.00
2023-07-03T02:17:27.594Z,1105.00
2023-07-03T02:18:27.564Z,1114.00
2023-07-03T02:19:27.560Z,1115.00
2023-07-03T02:20:27.574Z,1120.00
2023-07-03T02:21:27.572Z,1109.00
2023-07-03T02:22:27.596Z,1111.00
2023-07-03T02:23:27.573Z,1116.00
2023-07-03T02:24:27.629Z,1117.00
2023-07-03T02:25:27.610Z,1112.00
2023-07-03T02:26:27.633Z,1115.00
2023-07-03T02:27:27.647Z,1118.00
2023-07-03T02:28:27.665Z,1113.00
2023-07-03T02:29:27.650Z,1112.00
2023-07-03T02:30:27.752Z,1104.00
2023-07-03T02:31:27.792Z,1105.00
2023-07-03T02:32:27.724Z,1094.00
2023-07-03T02:33:27.709Z,1101.00
2023-07-03T02:34:27.714Z,1103.00
2023-07-03T02:35:27.696Z,1106.00
2023-07-03T02:36:27.718Z,1107.00
2023-07-03T02:37:27.754Z,1099.00
2023-07-03T02:38:27.741Z,1099.00
2023-07-03T02:39:27.772Z,1108.00
2023-07-03T02:40:27.778Z,1104.00
2023-07-03T02:41:27.807Z,1105.00
2023-07-03T02:42:27.814Z,1107.00
2023-07-03T02:43:27.790Z,1112.00
2023-07-03T02:44:27.856Z,1103.00
2023-07-03T02:45:27.813Z,1103.00
2023-07-03T02:46:27.842Z,1111.00
2023-07-03T02:47:28.073Z,1114.00
2023-07-03T02:48:27.873Z,1099.00
2023-07-03T02:49:27.956Z,1106.00
2023-07-03T02:50:27.901Z,1106.00
2023-07-03T02:51:27.934Z,1096.00
2023-07-03T02:52:27.936Z,1097.00
2023-07-03T02:53:27.987Z,1098.00
2023-07-03T02:54:27.939Z,1097.00
2023-07-03T02:55:27.983Z,1089.00
2023-07-03T02:56:28.009Z,1096.00
2023-07-03T02:57:27.972Z,1089.00
2023-07-03T02:58:28.057Z,1088.00
2023-07-03T02:59:28.043Z,1079.00
2023-07-03T03:00:28.048Z,1071.00
2023-07-03T03:01:28.065Z,1077.00
2023-07-03T03:02:28.089Z,1078.00
2023-07-03T03:03:28.188Z,1080.00
2023-07-03T03:04:28.066Z,1068.00
2023-07-03T03:05:28.075Z,1067.00
2023-07-03T03:06:28.080Z,1073.00
2023-07-03T03:07:28.124Z,1070.00
2023-07-03T03:08:28.127Z,1063.00
2023-07-03T03:09:28.154Z,1064.00
2023-07-03T03:10:28.147Z,1074.00
2023-07-03T03:11:28.167Z,1078.00
2023-07-03T03:12:28.201Z,1073.00
2023-07-03T03:13:28.198Z,1065.00
2023-07-03T03:14:28.288Z,1059.00
2023-07-03T03:15:28.268Z,1058.00
2023-07-03T03:16:28.292Z,1049.00
2023-07-03T03:17:28.301Z,1051.00
2023-07-03T03:18:28.305Z,1060.00
2023-07-03T03:19:28.265Z,1040.00
2023-07-03T03:20:28.322Z,1041.00
2023-07-03T03:21:28.311Z,1034.00
2023-07-03T03:22:28.281Z,1037.00
2023-07-03T03:23:28.309Z,1042.00
2023-07-03T03:24:28.342Z,1041.00
2023-07-03T03:25:28.340Z,1044.00
2023-07-03T03:26:28.352Z,1041.00
2023-07-03T03:27:28.331Z,1038.00
2023-07-03T03:28:28.365Z,1035.00
2023-07-03T03:29:28.331Z,1033.00
2023-07-03T03:30:28.391Z,1035.00
2023-07-03T03:31:28.389Z,1031.00
2023-07-03T03:32:28.417Z,1032.00
2023-07-03T03:33:28.359Z,1037.00
2023-07-03T03:34:28.393Z,1044.00
2023-07-03T03:35:28.395Z,1035.00
2023-07-03T03:36:28.403Z,1029.00
2023-07-03T03:37:28.404Z,1031.00
2023-07-03T03:38:28.397Z,1034.00
2023-07-03T03:39:28.392Z,1039.00
2023-07-03T03:40:28.411Z,1050.00
2023-07-03T03:41:28.421Z,1054.00
2023-07-03T03:42:28.430Z,1070.00
2023-07-03T03:43:28.477Z,1062.00
2023-07-03T03:44:28.449Z,1061.00
2023-07-03T03:45:28.462Z,1073.00
2023-07-03T03:46:28.476Z,1064.00
2023-07-03T03:47:28.482Z,1069.00
2023-07-03T03:48:28.528Z,1076.00
2023-07-03T03:49:28.457Z,1089.00
2023-07-03T03:50:28.461Z,1092.00
2023-07-03T03:51:28.511Z,1102.00
2023-07-03T03:52:28.467Z,1105.00
2023-07-03T03:53:28.479Z,1107.00
2023-07-03T03:54:28.483Z,1110.00
2023-07-03T03:55:28.490Z,1107.00
2023-07-03T03:56:28.478Z,1101.00
2023-07-03T03:57:28.507Z,1107.00
2023-07-03T03:58:28.508Z,1107.00
2023-07-03T03:59:28.485Z,1109.00
2023-07-03T04:00:28.557Z,1102.00
2023-07-03T04:01:28.531Z,1106.00
2023-07-03T04:02:28.525Z,1099.00
2023-07-03T04:03:28.560Z,1097.00
2023-07-03T04:04:28.532Z,1096.00
2023-07-03T04:05:28.524Z,1098.00
2023-07-03T04:06:28.557Z,1097.00
2023-07-03T04:07:28.541Z,1090.00
2023-07-03T04:08:28.576Z,1091.00
2023-07-03T04:09:28.582Z,1091.00
2023-07-03T04:10:28.586Z,1086.00
2023-07-03T04:11:28.578Z,1081.00
2023-07-03T04:12:28.598Z,1084.00
2023-07-03T04:13:28.642Z,1077.00
2023-07-03T04:14:28.631Z,1074.00
2023-07-03T04:15:28.623Z,1065.00
2023-07-03T04:16:28.686Z,1063.00
2023-07-03T04:17:28.697Z,1058.00
2023-07-03T04:18:28.630Z,1053.00
2023-07-03T04:19:28.746Z,1051.00
2023-07-03T04:20:28.675Z,1049.00
2023-07-03T04:21:28.701Z,1048.00
2023-07-03T04:22:28.722Z,1045.00
2023-07-03T04:23:28.745Z,1035.00
2023-07-03T04:24:28.760Z,1032.00
2023-07-03T04:25:28.742Z,1038.00
2023-07-03T04:26:28.787Z,1037.00
2023-07-03T04:27:28.799Z,1038.00
2023-07-03T04:28:28.831Z,1037.00
2023-07-03T04:29:28.825Z,1038.00
2023-07-03T04:30:28.847Z,1044.00
2023-07-03T04:31:28.931Z,1039.00
2023-07-03T04:32:28.893Z,1048.00
2023-07-03T04:33:28.875Z,1047.00
2023-07-03T04:34:28.891Z,1043.00
2023-07-03T04:35:28.919Z,1041.00
2023-07-03T04:36:28.926Z,1046.00
2023-07-03T04:37:28.950Z,1047.00
2023-07-03T04:38:28.964Z,1043.00
2023-07-03T04:39:28.997Z,1049.00
2023-07-03T04:40:30.870Z,1052.00
2023-07-03T04:41:29.033Z,1046.00
2023-07-03T04:42:29.075Z,1045.00
2023-07-03T04:43:29.041Z,1048.00
2023-07-03T04:44:29.153Z,1046.00
2023-07-03T04:45:29.090Z,1046.00
2023-07-03T04:46:29.171Z,1047.00
2023-07-03T04:47:29.212Z,1051.00
2023-07-03T04:48:29.162Z,1047.00
2023-07-03T04:49:29.195Z,1052.00
2023-07-03T04:50:29.209Z,1057.00
2023-07-03T04:51:29.250Z,1062.00
2023-07-03T04:52:29.253Z,1065.00
2023-07-03T04:53:29.288Z,1065.00
2023-07-03T04:54:29.307Z,1062.00
2023-07-03T04:55:29.355Z,1067.00
2023-07-03T04:56:29.409Z,1063.00
2023-07-03T04:57:29.418Z,1069.00
2023-07-03T04:58:29.394Z,1066.00
2023-07-03T04:59:29.428Z,1072.00
2023-07-03T05:00:29.512Z,1070.00
2023-07-03T05:01:29.493Z,1073.00
2023-07-03T05:02:31.824Z,1075.00
2023-07-03T05:03:29.545Z,1087.00
2023-07-03T05:04:29.493Z,1085.00
2023-07-03T05:05:29.517Z,1088.00
2023-07-03T05:06:29.522Z,1084.00
2023-07-03T05:07:29.529Z,1087.00
2023-07-03T05:08:29.537Z,1090.00
2023-07-03T05:09:29.531Z,1090.00
2023-07-03T05:10:29.529Z,1095.00
2023-07-03T05:11:29.552Z,1096.00
2023-07-03T05:12:29.528Z,1104.00
2023-07-03T05:13:29.567Z,1101.00
2023-07-03T05:14:29.589Z,1111.00
2023-07-03T05:15:29.563Z,1104.00
2023-07-03T05:16:29.883Z,1106.00
2023-07-03T05:17:29.597Z,1104.00
2023-07-03T05:18:29.592Z,1105.00
2023-07-03T05:19:29.626Z,1102.00
2023-07-03T05:20:29.614Z,1108.00
2023-07-03T05:21:29.611Z,1098.00
2023-07-03T05:22:29.645Z,1110.00
2023-07-03T05:23:29.654Z,1107.00
2023-07-03T05:24:29.640Z,1115.00
2023-07-03T05:25:29.653Z,1117.00
2023-07-03T05:26:29.656Z,1118.00
2023-07-03T05:27:29.658Z,1120.00
2023-07-03T05:28:29.636Z,1121.00
2023-07-03T05:29:29.682Z,1120.00
2023-07-03T05:30:29.677Z,1119.00
2023-07-03T05:31:29.906Z,1113.00
2023-07-03T05:32:29.683Z,1114.00
2023-07-03T05:33:29.679Z,1119.00
2023-07-03T05:34:29.732Z,1113.00
2023-07-03T05:35:29.719Z,1113.00
2023-07-03T05:36:29.750Z,1121.00
2023-07-03T05:37:29.801Z,1126.00
2023-07-03T05:38:29.838Z,1134.00
2023-07-03T05:39:32.585Z,1136.00
2023-07-03T05:40:29.831Z,1148.00
2023-07-03T05:41:29.832Z,1165.00
2023-07-03T05:42:29.805Z,1169.00
2023-07-03T05:43:29.818Z,1188.00
2023-07-03T05:44:29.804Z,1189.00
2023-07-03T05:45:29.797Z,1206.00
2023-07-03T05:46:29.793Z,1208.00
2023-07-03T05:47:29.768Z,1222.00
2023-07-03T05:48:29.720Z,1232.00
2023-07-03T05:49:29.737Z,1252.00
2023-07-03T05:50:29.730Z,1257.00
2023-07-03T05:51:29.726Z,1273.00
2023-07-03T05:52:29.697Z,1307.00
2023-07-03T05:53:29.658Z,1300.00
2023-07-03T05:54:29.646Z,1303.00
2023-07-03T05:55:29.651Z,1310.00
2023-07-03T05:56:29.712Z,1311.00
2023-07-03T05:57:29.694Z,1330.00
2023-07-03T05:58:29.640Z,1345.00
2023-07-03T05:59:29.613Z,1391.00
2023-07-03T06:00:29.598Z,1388.00
2023-07-03T06:01:29.691Z,1387.00
2023-07-03T06:02:29.599Z,1399.00
2023-07-03T06:03:29.633Z,1408.00
2023-07-03T06:04:29.594Z,1420.00
2023-07-03T06:05:29.588Z,1438.00
2023-07-03T06:06:29.554Z,1439.00
2023-07-03T06:07:29.549Z,1456.00
2023-07-03T06:08:29.556Z,1448.00
2023-07-03T06:09:29.550Z,1437.00
2023-07-03T06:10:29.595Z,1438.00
2023-07-03T06:11:29.524Z,1433.00
2023-07-03T06:12:29.508Z,1450.00
2023-07-03T06:13:29.501Z,1455.00
2023-07-03T06:14:29.523Z,1452.00
2023-07-03T06:15:29.489Z,1458.00
2023-07-03T06:16:29.468Z,1504.00
2023-07-03T06:17:29.511Z,1537.00
2023-07-03T06:18:29.446Z,1566.00
2023-07-03T06:19:29.455Z,1586.00
2023-07-03T06:20:29.464Z,1606.00
2023-07-03T06:21:29.417Z,1594.00
2023-07-03T06:22:29.387Z,1600.00
2023-07-03T06:23:29.390Z,1581.00
2023-07-03T06:24:29.373Z,1581.00
2023-07-03T06:25:29.353Z,1576.00
2023-07-03T06:26:29.351Z,1608.00
2023-07-03T06:27:29.329Z,1623.00
2023-07-03T06:28:29.322Z,1630.00
2023-07-03T06:29:29.321Z,1618.00
2023-07-03T06:30:29.374Z,1630.00
2023-07-03T06:31:29.351Z,1630.00
2023-07-03T06:32:29.288Z,1643.00
2023-07-03T06:33:29.263Z,1652.00
2023-07-03T06:34:29.228Z,1654.00
2023-07-03T06:35:29.291Z,1657.00
2023-07-03T06:36:29.224Z,1659.00
2023-07-03T06:37:29.338Z,1661.00
2023-07-03T06:38:29.201Z,1650.00
2023-07-03T06:39:29.139Z,1669.00
2023-07-03T06:40:29.255Z,1647.00
2023-07-03T06:41:29.107Z,1668.00
2023-07-03T06:42:29.121Z,1678.00
2023-07-03T06:43:29.075Z,1676.00
2023-07-03T06:44:29.077Z,1685.00
2023-07-03T06:45:29.046Z,1546.00
2023-07-03T06:46:29.095Z,1444.00
2023-07-03T06:47:29.042Z,1390.00
2023-07-03T06:48:29.005Z,1383.00
2023-07-03T06:49:29.014Z,1355.00
2023-07-03T06:50:29.041Z,1368.00
2023-07-03T06:51:28.966Z,1352.00
2023-07-03T06:52:28.945Z,1363.00
2023-07-03T06:53:29.042Z,1337.00
2023-07-03T06:54:28.989Z,1351.00
2023-07-03T06:55:28.918Z,1351.00
2023-07-03T06:56:28.927Z,1366.00
2023-07-03T06:57:28.865Z,1375.00
2023-07-03T06:58:28.880Z,1355.00
2023-07-03T06:59:28.908Z,1345.00
2023-07-03T07:00:28.957Z,1339.00
2023-07-03T07:01:28.960Z,1328.00
2023-07-03T07:02:28.985Z,1297.00
2023-07-03T07:03:29.061Z,1295.00
2023-07-03T07:04:29.902Z,1273.00
2023-07-03T07:05:29.049Z,1239.00
2023-07-03T07:06:29.083Z,1246.00
2023-07-03T07:07:29.086Z,1282.00
2023-07-03T07:08:29.072Z,1240.00
2023-07-03T07:09:29.239Z,1202.00
2023-07-03T07:10:29.108Z,1220.00
2023-07-03T07:11:29.110Z,1217.00
2023-07-03T07:12:29.133Z,1192.00
2023-07-03T07:13:29.188Z,1184.00
2023-07-03T07:14:29.151Z,1180.00
2023-07-03T07:15:29.193Z,1204.00
2023-07-03T07:16:29.265Z,1205.00
2023-07-03T07:17:45.890Z,1137.00
2023-07-03T07:18:30.206Z,1137.00
2023-07-03T07:19:29.202Z,1125.00
2023-07-03T07:20:29.151Z,1118.00
2023-07-03T07:21:29.170Z,1086.00
2023-07-03T07:22:29.130Z,1032.00
2023-07-03T07:23:29.134Z,1015.00
2023-07-03T07:24:29.174Z,1018.00
2023-07-03T07:25:29.188Z,1041.00
2023-07-03T07:26:29.161Z,1042.00
2023-07-03T07:27:29.133Z,972.00
2023-07-03T07:28:29.168Z,981.00
2023-07-03T07:29:29.111Z,974.00
2023-07-03T07:30:29.139Z,1012.00
2023-07-03T07:31:29.166Z,948.00
2023-07-03T07:32:29.155Z,973.00
2023-07-03T07:33:29.132Z,921.00
2023-07-03T07:34:29.151Z,940.00
2023-07-03T07:36:47.257Z,600.00
2023-07-03T07:37:47.249Z,600.00
2023-07-03T07:38:47.233Z,600.00
2023-07-03T07:39:47.217Z,600.00
2023-07-03T07:40:47.337Z,600.00
2023-07-03T07:41:47.259Z,611.00
2023-07-03T07:42:47.262Z,598.00
2023-07-03T07:43:47.233Z,608.00
2023-07-03T07:44:47.234Z,648.00
2023-07-03T07:45:47.238Z,691.00
2023-07-03T07:46:47.496Z,725.00
2023-07-03T07:47:47.317Z,773.00
2023-07-03T07:48:47.289Z,786.00
2023-07-03T07:49:47.234Z,845.00
2023-07-03T07:50:47.257Z,874.00
2023-07-03T07:51:47.244Z,863.00
2023-07-03T07:52:47.311Z,855.00
2023-07-03T07:53:47.241Z,893.00
2023-07-03T07:54:47.207Z,934.00
2023-07-03T07:55:47.233Z,950.00
2023-07-03T07:56:47.199Z,966.00
2023-07-03T07:57:47.207Z,1017.00
2023-07-03T07:58:47.184Z,981.00
2023-07-03T07:59:47.161Z,994.00
2023-07-03T08:00:47.172Z,1026.00
2023-07-03T08:01:47.163Z,978.00
2023-07-03T08:02:47.154Z,1008.00
2023-07-03T08:03:47.194Z,976.00
2023-07-03T08:04:47.244Z,999.00
2023-07-03T08:05:47.098Z,1047.00
2023-07-03T08:06:47.112Z,1058.00
2023-07-03T08:07:47.067Z,1022.00
2023-07-03T08:08:47.055Z,1022.00
2023-07-03T08:09:47.075Z,1034.00
2023-07-03T08:10:47.055Z,1038.00
2023-07-03T08:11:47.072Z,1049.00
2023-07-03T08:12:47.148Z,1011.00
2023-07-03T08:13:47.060Z,1008.00
2023-07-03T08:14:47.041Z,1034.00
2023-07-03T08:15:47.020Z,1036.00
2023-07-03T08:16:47.073Z,1047.00
2023-07-03T08:17:47.996Z,1036.00
2023-07-03T08:18:49.651Z,1047.00
2023-07-03T08:19:47.012Z,1045.00
2023-07-03T08:20:46.983Z,1046.00
2023-07-03T08:21:47.023Z,1078.00
2023-07-03T08:22:46.991Z,1068.00
2023-07-03T08:23:46.979Z,1068.00
2023-07-03T08:24:47.005Z,1093.00
2023-07-03T08:25:46.974Z,1068.00
2023-07-03T08:26:46.959Z,1051.00
2023-07-03T08:27:46.984Z,1008.00
2023-07-03T08:28:47.056Z,1026.00
2023-07-03T08:29:46.937Z,1032.00
2023-07-03T08:30:46.960Z,987.00
2023-07-03T08:31:46.945Z,1004.00
2023-07-03T08:32:47.025Z,1015.00
2023-07-03T08:33:46.967Z,996.00
2023-07-03T08:37:46.882Z,854.00
2023-07-03T08:38:46.896Z,791.00
2023-07-03T08:39:46.869Z,846.00
2023-07-03T08:40:46.844Z,912.00
2023-07-03T08:41:46.871Z,888.00
2023-07-03T08:42:46.854Z,887.00
2023-07-03T08:43:46.846Z,947.00
2023-07-03T08:44:46.928Z,1004.00
2023-07-03T08:45:46.864Z,998.00
2023-07-03T08:46:55.451Z,1062.00
2023-07-03T08:47:47.810Z,1065.00
2023-07-03T08:48:46.794Z,1080.00
2023-07-03T08:49:46.776Z,1104.00
2023-07-03T08:50:46.759Z,1152.00
2023-07-03T08:51:46.765Z,1230.00
2023-07-03T08:52:46.760Z,1283.00
2023-07-03T08:53:46.717Z,1310.00
2023-07-03T08:54:46.724Z,1331.00
2023-07-03T08:55:46.739Z,1356.00
2023-07-03T08:56:46.697Z,1369.00
2023-07-03T08:57:46.692Z,1387.00
2023-07-03T08:58:46.706Z,1408.00
2023-07-03T08:59:46.688Z,1418.00
2023-07-03T09:00:46.745Z,1420.00
2023-07-03T09:01:46.785Z,1442.00
2023-07-03T09:02:46.748Z,1455.00
2023-07-03T09:03:46.773Z,1478.00
2023-07-03T09:04:46.680Z,1499.00
2023-07-03T09:05:46.612Z,1507.00
2023-07-03T09:06:46.609Z,1516.00
2023-07-03T09:07:46.570Z,1516.00
2023-07-03T09:08:46.575Z,1536.00
2023-07-03T09:09:46.590Z,1565.00
2023-07-03T09:10:46.619Z,1569.00
2023-07-03T09:11:46.642Z,1588.00
2023-07-03T09:12:46.622Z,1592.00
2023-07-03T09:13:46.669Z,1607.00
2023-07-03T09:14:46.677Z,1617.00
2023-07-03T09:15:46.674Z,1630.00
2023-07-03T09:16:46.794Z,1644.00
2023-07-03T09:17:46.737Z,1644.00
2023-07-03T09:18:47.080Z,1651.00
2023-07-03T09:19:46.885Z,1653.00
2023-07-03T09:20:46.749Z,1659.00
2023-07-03T09:21:46.779Z,1649.00
2023-07-03T09:22:46.798Z,1660.00
2023-07-03T09:23:46.797Z,1660.00
2023-07-03T09:24:46.797Z,1673.00
2023-07-03T09:25:46.810Z,1661.00
2023-07-03T09:26:47.852Z,1668.00
2023-07-03T09:27:48.325Z,1673.00
2023-07-03T09:28:46.832Z,1688.00
2023-07-03T09:29:46.901Z,1684.00
2023-07-03T09:30:47.763Z,1672.00
2023-07-03T09:31:46.872Z,1677.00
2023-07-03T09:32:46.940Z,1633.00
2023-07-03T09:33:46.872Z,1511.00
2023-07-03T09:34:46.793Z,1423.00
2023-07-03T09:35:46.794Z,1392.00
2023-07-03T09:36:46.805Z,1401.00
2023-07-03T09:37:46.826Z,1391.00
2023-07-03T09:38:46.825Z,1372.00
2023-07-03T09:39:46.914Z,1366.00
2023-07-03T09:40:47.058Z,1302.00
2023-07-03T09:41:47.888Z,1177.00
2023-07-03T09:42:49.744Z,1193.00
2023-07-03T09:43:46.837Z,1194.00
2023-07-03T09:44:46.917Z,1198.00
2023-07-03T09:45:46.830Z,1184.00
2023-07-03T09:46:46.840Z,1130.00
2023-07-03T09:47:46.847Z,1074.00
2023-07-03T09:48:47.037Z,1059.00
2023-07-03T09:49:46.791Z,1036.00
2023-07-03T09:51:04.936Z,1035.00
2023-07-03T09:51:47.777Z,1013.00
2023-07-03T09:52:59.605Z,980.00
2023-07-03T09:53:47.740Z,964.00
2023-07-03T09:54:46.737Z,918.00
2023-07-03T09:55:46.750Z,916.00
2023-07-03T09:56:46.722Z,949.00
2023-07-03T09:57:46.709Z,981.00
2023-07-03T09:58:46.692Z,980.00
2023-07-03T09:59:46.682Z,970.00
2023-07-03T10:00:48.424Z,948.00
2023-07-03T10:03:46.794Z,877.00
2023-07-03T10:06:46.730Z,894.00
2023-07-03T10:07:46.724Z,899.00
2023-07-03T10:08:46.813Z,903.00
2023-07-03T10:11:46.652Z,893.00
2023-07-03T10:12:46.602Z,869.00
2023-07-03T10:13:46.538Z,887.00
2023-07-03T10:14:46.548Z,889.00
2023-07-03T10:15:46.505Z,862.00
2023-07-03T10:16:46.594Z,811.00
2023-07-03T10:17:46.584Z,809.00
2023-07-03T10:18:46.487Z,805.00
2023-07-03T10:19:46.473Z,783.00
2023-07-03T10:20:46.564Z,738.00
2023-07-03T10:21:46.489Z,699.00
2023-07-03T10:22:46.470Z,693.00
2023-07-03T10:23:46.455Z,672.00
2023-07-03T10:24:46.476Z,675.00
2023-07-03T10:25:46.427Z,653.00
2023-07-03T10:26:46.443Z,643.00
2023-07-03T10:27:46.457Z,642.00
2023-07-03T10:28:46.466Z,646.00
2023-07-03T10:29:46.426Z,631.00
2023-07-03T10:30:46.413Z,642.00
2023-07-03T10:31:46.564Z,644.00
2023-07-03T10:32:46.451Z,642.00
2023-07-03T10:33:46.394Z,630.00
2023-07-03T10:34:46.406Z,621.00
2023-07-03T10:35:46.370Z,618.00
2023-07-03T10:36:46.447Z,620.00
2023-07-03T10:37:46.337Z,621.00
2023-07-03T10:38:46.364Z,618.00
2023-07-03T10:39:46.339Z,620.00
2023-07-03T10:40:46.324Z,621.00
2023-07-03T10:41:46.338Z,617.00
2023-07-03T10:42:46.329Z,609.00
2023-07-03T10:43:46.311Z,619.00
2023-07-03T10:44:46.292Z,629.00
2023-07-03T10:45:46.332Z,617.00
2023-07-03T10:46:46.375Z,603.00
2023-07-03T10:47:46.428Z,603.00
2023-07-03T10:48:46.285Z,608.00
2023-07-03T10:49:46.265Z,603.00
2023-07-03T10:50:46.280Z,604.00
2023-07-03T10:51:46.283Z,600.00
2023-07-03T10:52:46.421Z,602.00
2023-07-03T10:53:46.302Z,605.00
2023-07-03T10:54:46.337Z,599.00
2023-07-03T10:55:46.349Z,600.00
2023-07-03T10:56:46.314Z,601.00
2023-07-03T10:57:46.309Z,602.00
2023-07-03T10:58:46.322Z,600.00
2023-07-03T10:59:46.308Z,606.00
2023-07-03T11:00:46.344Z,607.00
2023-07-03T11:01:46.449Z,603.00
2023-07-03T11:02:46.424Z,611.00
2023-07-03T11:03:47.821Z,606.00
2023-07-03T11:04:46.437Z,606.00
2023-07-03T11:05:46.383Z,600.00
2023-07-03T11:06:46.380Z,601.00
2023-07-03T11:07:46.429Z,602.00
2023-07-03T11:08:46.495Z,600.00
2023-07-03T11:09:46.431Z,600.00
2023-07-03T11:10:46.411Z,604.00
2023-07-03T11:11:46.472Z,600.00
2023-07-03T11:12:46.451Z,600.00
2023-07-03T11:13:46.493Z,599.00
2023-07-03T11:14:46.477Z,600.00
2023-07-03T11:15:46.516Z,600.00
2023-07-03T11:16:46.555Z,603.00
2023-07-03T11:22:46.558Z,600.00
2023-07-03T11:23:46.572Z,601.00
2023-07-03T11:24:46.553Z,605.00
2023-07-03T11:28:46.523Z,617.00
2023-07-03T11:29:46.544Z,603.00
2023-07-03T11:30:46.585Z,599.00
2023-07-03T11:31:46.799Z,601.00
2023-07-03T11:32:46.623Z,604.00
2023-07-03T11:39:46.592Z,609.00
2023-07-03T11:40:46.626Z,610.00
2023-07-03T11:43:46.552Z,609.00
2023-07-03T11:44:46.564Z,604.00
2023-07-03T11:45:46.594Z,604.00
2023-07-03T11:46:46.708Z,605.00
2023-07-03T11:47:46.622Z,599.00
2023-07-03T11:48:46.715Z,610.00
2023-07-03T11:49:46.594Z,601.00
2023-07-03T11:50:46.597Z,609.00
2023-07-03T11:51:46.617Z,610.00
2023-07-03T11:52:46.614Z,615.00
2023-07-03T11:53:46.593Z,611.00
2023-07-03T11:54:46.595Z,611.00
2023-07-03T11:55:46.611Z,604.00
2023-07-03T11:56:46.585Z,610.00
2023-07-03T11:57:49.963Z,613.00
2023-07-03T11:58:47.596Z,613.00
2023-07-03T11:59:46.637Z,615.00
2023-07-03T12:00:46.672Z,618.00
2023-07-03T12:01:46.633Z,622.00
2023-07-03T12:02:46.744Z,623.00
2023-07-03T12:03:46.702Z,621.00
2023-07-03T12:04:49.098Z,620.00
2023-07-03T12:05:46.668Z,630.00
2023-07-03T12:06:46.660Z,623.00
2023-07-03T12:07:46.674Z,616.00
2023-07-03T12:08:46.678Z,623.00
2023-07-03T12:09:46.690Z,625.00
2023-07-03T12:10:46.713Z,629.00
2023-07-03T12:11:46.712Z,627.00
2023-07-03T12:12:46.716Z,629.00
2023-07-03T12:13:46.799Z,617.00
2023-07-03T12:14:46.713Z,617.00
2023-07-03T12:15:46.780Z,619.00
2023-07-03T12:16:46.768Z,623.00
2023-07-03T12:17:46.869Z,616.00
2023-07-03T12:18:46.751Z,612.00
2023-07-03T12:19:46.725Z,616.00
2023-07-03T12:20:46.767Z,616.00
2023-07-03T12:21:46.810Z,616.00
2023-07-03T12:22:46.799Z,624.00
2023-07-03T12:23:49.197Z,622.00
2023-07-03T12:24:47.109Z,622.00
2023-07-03T12:25:47.039Z,617.00
2023-07-03T12:26:47.062Z,619.00
2023-07-03T12:27:47.090Z,614.00
2023-07-03T12:28:47.086Z,605.00
2023-07-03T12:29:47.129Z,605.00
2023-07-03T12:30:47.202Z,604.00
2023-07-03T12:31:47.193Z,608.00
2023-07-03T12:32:47.233Z,605.00
2023-07-03T12:33:47.222Z,602.00
2023-07-03T12:34:47.286Z,603.00
2023-07-03T12:35:47.359Z,600.00
2023-07-03T12:36:50.598Z,601.00
2023-07-03T12:37:48.339Z,600.00